Gardner, Massachusetts
Current Conditions -  °F | °C
As of 8:52 AM on Sunday 21 Dec 2014 (Local Time) from KFIT Reporting Station
Overcast Overcast  
Wind Chill: 25°   Ceiling: 1700
Heat Index: 30°   Visibility: 9mi
Dew Point: 23°   Wind: 5mph
Humidity: 75%   Direction: 20°NNE
Pressure: 30.33"   Gusts: NA
Location:  42.57°N, 71.99°W
Report Text: KFIT 211352Z AUTO 02004KT 9SM BKN017 OVC024 M01/M05 A3033 RMK AO2 SNB1254E39 SLP276 P0000 T10111050
Loading
Personal Weather Stations






























Interactive Weather Map New forecast layout! Learn more

10-Day Weather Forecast

Advertisements
Track Severe Weather on mobile